sensor_id;sensor_type;location;lat;lon;timestamp;pressure;altitude;pressure_sealevel;temperature
67599;BMP280;62026;39.230;9.122;2022-11-15T00:02:27;101501.97;;;18.83
67599;BMP280;62026;39.230;9.122;2022-11-15T00:05:12;101495.56;;;18.84
67599;BMP280;62026;39.230;9.122;2022-11-15T00:07:57;101487.13;;;18.76
67599;BMP280;62026;39.230;9.122;2022-11-15T00:10:42;101493.06;;;18.78
67599;BMP280;62026;39.230;9.122;2022-11-15T00:13:27;101488.22;;;18.75
67599;BMP280;62026;39.230;9.122;2022-11-15T00:16:12;101489.00;;;18.58
67599;BMP280;62026;39.230;9.122;2022-11-15T00:18:56;101489.66;;;18.66
67599;BMP280;62026;39.230;9.122;2022-11-15T00:21:42;101480.94;;;18.53
67599;BMP280;62026;39.230;9.122;2022-11-15T00:24:26;101480.97;;;18.58
67599;BMP280;62026;39.230;9.122;2022-11-15T00:27:11;101468.41;;;18.59
67599;BMP280;62026;39.230;9.122;2022-11-15T00:29:55;101479.78;;;18.49
67599;BMP280;62026;39.230;9.122;2022-11-15T00:32:40;101461.63;;;18.51
67599;BMP280;62026;39.230;9.122;2022-11-15T00:35:25;101459.88;;;18.40
67599;BMP280;62026;39.230;9.122;2022-11-15T00:38:09;101461.50;;;18.41
67599;BMP280;62026;39.230;9.122;2022-11-15T00:40:54;101459.19;;;18.50
67599;BMP280;62026;39.230;9.122;2022-11-15T00:43:39;101460.53;;;18.47
67599;BMP280;62026;39.230;9.122;2022-11-15T00:46:24;101462.38;;;18.47
67599;BMP280;62026;39.230;9.122;2022-11-15T00:49:08;101462.31;;;18.42
67599;BMP280;62026;39.230;9.122;2022-11-15T00:51:53;101461.25;;;18.43
67599;BMP280;62026;39.230;9.122;2022-11-15T00:54:38;101454.94;;;18.32
67599;BMP280;62026;39.230;9.122;2022-11-15T00:57:22;101463.94;;;18.43
67599;BMP280;62026;39.230;9.122;2022-11-15T01:00:08;101458.25;;;18.39
67599;BMP280;62026;39.230;9.122;2022-11-15T01:02:53;101450.38;;;18.49
67599;BMP280;62026;39.230;9.122;2022-11-15T01:05:38;101445.03;;;18.49
67599;BMP280;62026;39.230;9.122;2022-11-15T01:08:22;101442.53;;;18.43
67599;BMP280;62026;39.230;9.122;2022-11-15T01:11:11;101440.63;;;18.43
67599;BMP280;62026;39.230;9.122;2022-11-15T01:13:56;101436.31;;;18.37
67599;BMP280;62026;39.230;9.122;2022-11-15T01:16:41;101440.09;;;18.41
67599;BMP280;62026;39.230;9.122;2022-11-15T01:19:25;101439.00;;;18.37
67599;BMP280;62026;39.230;9.122;2022-11-15T01:22:10;101437.66;;;18.40
67599;BMP280;62026;39.230;9.122;2022-11-15T01:24:55;101433.22;;;18.45
67599;BMP280;62026;39.230;9.122;2022-11-15T01:27:39;101435.28;;;18.43
67599;BMP280;62026;39.230;9.122;2022-11-15T01:30:24;101436.47;;;18.47
67599;BMP280;62026;39.230;9.122;2022-11-15T01:33:08;101442.28;;;18.44
67599;BMP280;62026;39.230;9.122;2022-11-15T01:35:54;101431.13;;;18.47
67599;BMP280;62026;39.230;9.122;2022-11-15T01:38:38;101434.28;;;18.44
67599;BMP280;62026;39.230;9.122;2022-11-15T01:41:28;101443.31;;;18.43
67599;BMP280;62026;39.230;9.122;2022-11-15T01:47:26;101431.19;;;18.36
67599;BMP280;62026;39.230;9.122;2022-11-15T01:50:20;101426.50;;;18.26
67599;BMP280;62026;39.230;9.122;2022-11-15T01:53:07;101424.78;;;18.20
67599;BMP280;62026;39.230;9.122;2022-11-15T01:55:53;101422.53;;;18.12
67599;BMP280;62026;39.230;9.122;2022-11-15T01:58:40;101411.44;;;18.20
67599;BMP280;62026;39.230;9.122;2022-11-15T02:01:28;101406.59;;;18.17
67599;BMP280;62026;39.230;9.122;2022-11-15T02:04:24;101399.09;;;18.14
67599;BMP280;62026;39.230;9.122;2022-11-15T02:07:13;101393.75;;;18.14
67599;BMP280;62026;39.230;9.122;2022-11-15T02:10:07;101396.72;;;18.17
67599;BMP280;62026;39.230;9.122;2022-11-15T02:12:54;101400.09;;;18.13
67599;BMP280;62026;39.230;9.122;2022-11-15T02:29:14;101390.56;;;18.17
67599;BMP280;62026;39.230;9.122;2022-11-15T02:41:53;101376.06;;;18.13
67599;BMP280;62026;39.230;9.122;2022-11-15T02:44:45;101373.13;;;18.14
67599;BMP280;62026;39.230;9.122;2022-11-15T02:47:37;101367.00;;;18.14
67599;BMP280;62026;39.230;9.122;2022-11-15T02:50:28;101361.59;;;18.09
67599;BMP280;62026;39.230;9.122;2022-11-15T02:53:15;101361.59;;;18.09
67599;BMP280;62026;39.230;9.122;2022-11-15T02:56:00;101364.34;;;18.14
67599;BMP280;62026;39.230;9.122;2022-11-15T02:59:00;101366.41;;;18.12
67599;BMP280;62026;39.230;9.122;2022-11-15T03:05:52;101360.44;;;18.05
67599;BMP280;62026;39.230;9.122;2022-11-15T03:12:04;101358.63;;;18.10
67599;BMP280;62026;39.230;9.122;2022-11-15T03:18:10;101352.19;;;18.06
67599;BMP280;62026;39.230;9.122;2022-11-15T03:21:01;101359.44;;;18.11
67599;BMP280;62026;39.230;9.122;2022-11-15T03:23:48;101340.38;;;18.02
67599;BMP280;62026;39.230;9.122;2022-11-15T03:26:38;101359.44;;;18.11
67599;BMP280;62026;39.230;9.122;2022-11-15T03:29:31;101351.44;;;18.11
67599;BMP280;62026;39.230;9.122;2022-11-15T03:32:24;101340.69;;;18.06
67599;BMP280;62026;39.230;9.122;2022-11-15T03:35:29;101338.59;;;18.08
67599;BMP280;62026;39.230;9.122;2022-11-15T03:38:24;101345.28;;;18.10
67599;BMP280;62026;39.230;9.122;2022-11-15T03:41:27;101338.06;;;18.11
67599;BMP280;62026;39.230;9.122;2022-11-15T03:47:41;101334.88;;;18.09
67599;BMP280;62026;39.230;9.122;2022-11-15T03:50:27;101341.78;;;18.10
67599;BMP280;62026;39.230;9.122;2022-11-15T03:53:13;101331.09;;;18.10
67599;BMP280;62026;39.230;9.122;2022-11-15T03:55:58;101326.56;;;18.10
67599;BMP280;62026;39.230;9.122;2022-11-15T03:58:42;101321.75;;;18.07
67599;BMP280;62026;39.230;9.122;2022-11-15T04:01:27;101326.84;;;18.09
67599;BMP280;62026;39.230;9.122;2022-11-15T04:04:11;101310.72;;;18.04
67599;BMP280;62026;39.230;9.122;2022-11-15T04:06:56;101308.16;;;18.09
67599;BMP280;62026;39.230;9.122;2022-11-15T04:09:40;101316.16;;;18.09
67599;BMP280;62026;39.230;9.122;2022-11-15T04:12:45;101302.16;;;18.02
67599;BMP280;62026;39.230;9.122;2022-11-15T04:15:34;101309.44;;;18.06
67599;BMP280;62026;39.230;9.122;2022-11-15T04:18:18;101304.66;;;18.08
67599;BMP280;62026;39.230;9.122;2022-11-15T04:21:03;101309.72;;;18.10
67599;BMP280;62026;39.230;9.122;2022-11-15T04:24:06;101300.84;;;18.04
67599;BMP280;62026;39.230;9.122;2022-11-15T04:26:58;101299.56;;;18.07
67599;BMP280;62026;39.230;9.122;2022-11-15T04:29:42;101300.38;;;18.07
67599;BMP280;62026;39.230;9.122;2022-11-15T04:32:27;101302.22;;;18.07
67599;BMP280;62026;39.230;9.122;2022-11-15T04:35:11;101294.22;;;18.07
67599;BMP280;62026;39.230;9.122;2022-11-15T04:37:57;101288.88;;;18.07
67599;BMP280;62026;39.230;9.122;2022-11-15T04:40:42;101287.75;;;18.03
67599;BMP280;62026;39.230;9.122;2022-11-15T04:43:27;101286.69;;;18.04
67599;BMP280;62026;39.230;9.122;2022-11-15T04:46:12;101282.91;;;18.00
67599;BMP280;62026;39.230;9.122;2022-11-15T04:48:56;101279.16;;;18.01
67599;BMP280;62026;39.230;9.122;2022-11-15T04:51:41;101282.09;;;17.99
67599;BMP280;62026;39.230;9.122;2022-11-15T04:54:25;101284.25;;;18.02
67599;BMP280;62026;39.230;9.122;2022-11-15T04:57:10;101275.13;;;17.98
67599;BMP280;62026;39.230;9.122;2022-11-15T04:59:54;101284.78;;;17.99
67599;BMP280;62026;39.230;9.122;2022-11-15T05:02:39;101286.03;;;17.97
67599;BMP280;62026;39.230;9.122;2022-11-15T05:05:43;101297.47;;;17.92
67599;BMP280;62026;39.230;9.122;2022-11-15T05:08:27;101286.03;;;17.97
67599;BMP280;62026;39.230;9.122;2022-11-15T05:11:12;101280.63;;;17.91
67599;BMP280;62026;39.230;9.122;2022-11-15T05:13:57;101287.84;;;17.91
67599;BMP280;62026;39.230;9.122;2022-11-15T05:16:42;101288.09;;;17.89
67599;BMP280;62026;39.230;9.122;2022-11-15T05:19:27;101272.53;;;17.86
67599;BMP280;62026;39.230;9.122;2022-11-15T05:22:11;101275.78;;;17.88
67599;BMP280;62026;39.230;9.122;2022-11-15T05:24:56;101275.47;;;17.85
67599;BMP280;62026;39.230;9.122;2022-11-15T05:27:41;101280.56;;;17.86
67599;BMP280;62026;39.230;9.122;2022-11-15T05:30:25;101279.75;;;17.86
67599;BMP280;62026;39.230;9.122;2022-11-15T05:33:10;101282.09;;;17.82
67599;BMP280;62026;39.230;9.122;2022-11-15T05:36:04;101263.19;;;17.84
67599;BMP280;62026;39.230;9.122;2022-11-15T05:38:49;101242.69;;;17.73
67599;BMP280;62026;39.230;9.122;2022-11-15T05:41:46;101271.41;;;17.82
67599;BMP280;62026;39.230;9.122;2022-11-15T05:44:33;101268.91;;;17.76
67599;BMP280;62026;39.230;9.122;2022-11-15T05:47:25;101275.63;;;17.78
67599;BMP280;62026;39.230;9.122;2022-11-15T05:50:16;101270.28;;;17.78
67599;BMP280;62026;39.230;9.122;2022-11-15T05:53:02;101267.88;;;17.77
67599;BMP280;62026;39.230;9.122;2022-11-15T05:55:47;101266.72;;;17.73
67599;BMP280;62026;39.230;9.122;2022-11-15T05:58:37;101266.97;;;17.71
67599;BMP280;62026;39.230;9.122;2022-11-15T06:01:22;101258.94;;;17.71
67599;BMP280;62026;39.230;9.122;2022-11-15T06:04:07;101263.25;;;17.72
67599;BMP280;62026;39.230;9.122;2022-11-15T06:06:51;101258.94;;;17.71
67599;BMP280;62026;39.230;9.122;2022-11-15T06:09:36;101262.19;;;17.73
67599;BMP280;62026;39.230;9.122;2022-11-15T06:12:20;101254.13;;;17.68
67599;BMP280;62026;39.230;9.122;2022-11-15T06:15:05;101257.00;;;17.67
67599;BMP280;62026;39.230;9.122;2022-11-15T06:17:50;101261.63;;;17.71
67599;BMP280;62026;39.230;9.122;2022-11-15T06:20:34;101261.31;;;17.68
67599;BMP280;62026;39.230;9.122;2022-11-15T06:23:19;101261.56;;;17.66
67599;BMP280;62026;39.230;9.122;2022-11-15T06:26:04;101257.53;;;17.64
67599;BMP280;62026;39.230;9.122;2022-11-15T06:28:48;101272.72;;;17.63
67599;BMP280;62026;39.230;9.122;2022-11-15T06:31:34;101272.25;;;17.66
67599;BMP280;62026;39.230;9.122;2022-11-15T06:34:19;101263.66;;;17.64
67599;BMP280;62026;39.230;9.122;2022-11-15T06:37:03;101266.91;;;17.66
67599;BMP280;62026;39.230;9.122;2022-11-15T06:39:48;101270.28;;;17.62
67599;BMP280;62026;39.230;9.122;2022-11-15T06:42:32;101275.69;;;17.67
67599;BMP280;62026;39.230;9.122;2022-11-15T06:45:17;101270.34;;;17.67
67599;BMP280;62026;39.230;9.122;2022-11-15T06:48:02;101262.56;;;17.60
67599;BMP280;62026;39.230;9.122;2022-11-15T06:50:55;101268.50;;;17.67
67599;BMP280;62026;39.230;9.122;2022-11-15T06:53:40;101270.19;;;17.73
67599;BMP280;62026;39.230;9.122;2022-11-15T06:56:25;101273.47;;;17.75
67599;BMP280;62026;39.230;9.122;2022-11-15T06:59:09;101264.25;;;17.66
67599;BMP280;62026;39.230;9.122;2022-11-15T07:01:54;101276.31;;;17.69
67599;BMP280;62026;39.230;9.122;2022-11-15T07:04:39;101270.16;;;17.68
67599;BMP280;62026;39.230;9.122;2022-11-15T07:07:23;101271.53;;;17.71
67599;BMP280;62026;39.230;9.122;2022-11-15T07:10:08;101277.66;;;17.71
67599;BMP280;62026;39.230;9.122;2022-11-15T07:12:54;101281.94;;;17.72
67599;BMP280;62026;39.230;9.122;2022-11-15T07:15:39;101282.50;;;17.74
67599;BMP280;62026;39.230;9.122;2022-11-15T07:18:24;101282.41;;;17.86
67599;BMP280;62026;39.230;9.122;2022-11-15T07:21:10;101287.94;;;17.79
67599;BMP280;62026;39.230;9.122;2022-11-15T07:23:55;101288.41;;;17.76
67599;BMP280;62026;39.230;9.122;2022-11-15T07:26:40;101283.22;;;17.86
67599;BMP280;62026;39.230;9.122;2022-11-15T07:29:24;101281.28;;;17.99
67599;BMP280;62026;39.230;9.122;2022-11-15T07:32:09;101277.81;;;18.20
67599;BMP280;62026;39.230;9.122;2022-11-15T07:34:53;101283.59;;;18.34
67599;BMP280;62026;39.230;9.122;2022-11-15T07:37:38;101278.19;;;18.50
67599;BMP280;62026;39.230;9.122;2022-11-15T07:40:23;101267.91;;;18.37
67599;BMP280;62026;39.230;9.122;2022-11-15T07:43:08;101265.25;;;18.20
67599;BMP280;62026;39.230;9.122;2022-11-15T07:45:53;101269.72;;;18.15
67599;BMP280;62026;39.230;9.122;2022-11-15T07:48:39;101278.94;;;18.24
67599;BMP280;62026;39.230;9.122;2022-11-15T07:51:24;101274.72;;;18.50
67599;BMP280;62026;39.230;9.122;2022-11-15T07:54:08;101269.97;;;18.79
67599;BMP280;62026;39.230;9.122;2022-11-15T07:56:53;101273.56;;;19.21
67599;BMP280;62026;39.230;9.122;2022-11-15T07:59:38;101279.19;;;19.52
67599;BMP280;62026;39.230;9.122;2022-11-15T08:02:22;101268.31;;;19.68
67599;BMP280;62026;39.230;9.122;2022-11-15T08:05:07;101274.94;;;19.66
67599;BMP280;62026;39.230;9.122;2022-11-15T08:07:55;101268.75;;;19.55
67599;BMP280;62026;39.230;9.122;2022-11-15T08:10:40;101276.88;;;19.70
67599;BMP280;62026;39.230;9.122;2022-11-15T08:13:25;101275.09;;;19.86
67599;BMP280;62026;39.230;9.122;2022-11-15T08:16:09;101267.69;;;20.03
67599;BMP280;62026;39.230;9.122;2022-11-15T08:18:56;101275.78;;;20.14
67599;BMP280;62026;39.230;9.122;2022-11-15T08:21:41;101260.81;;;20.28
67599;BMP280;62026;39.230;9.122;2022-11-15T08:24:25;101272.72;;;20.62
67599;BMP280;62026;39.230;9.122;2022-11-15T08:27:10;101269.78;;;20.94
67599;BMP280;62026;39.230;9.122;2022-11-15T08:29:58;101259.91;;;21.05
67599;BMP280;62026;39.230;9.122;2022-11-15T08:32:43;101263.63;;;21.34
67599;BMP280;62026;39.230;9.122;2022-11-15T08:35:28;101265.25;;;21.35
67599;BMP280;62026;39.230;9.122;2022-11-15T08:38:13;101264.44;;;21.24
67599;BMP280;62026;39.230;9.122;2022-11-15T08:41:04;101258.25;;;21.44
67599;BMP280;62026;39.230;9.122;2022-11-15T08:43:50;101245.31;;;21.51
67599;BMP280;62026;39.230;9.122;2022-11-15T08:46:34;101243.16;;;21.58
67599;BMP280;62026;39.230;9.122;2022-11-15T08:49:19;101245.88;;;21.53
67599;BMP280;62026;39.230;9.122;2022-11-15T08:52:04;101242.09;;;21.65
67599;BMP280;62026;39.230;9.122;2022-11-15T08:54:48;101245.81;;;21.63
67599;BMP280;62026;39.230;9.122;2022-11-15T08:57:33;101240.94;;;21.71
67599;BMP280;62026;39.230;9.122;2022-11-15T09:00:18;101237.84;;;22.08
67599;BMP280;62026;39.230;9.122;2022-11-15T09:03:05;101245.47;;;21.90
67599;BMP280;62026;39.230;9.122;2022-11-15T09:05:59;101248.06;;;21.21
67599;BMP280;62026;39.230;9.122;2022-11-15T09:08:44;101248.06;;;21.01
67599;BMP280;62026;39.230;9.122;2022-11-15T09:11:29;101245.91;;;21.08
67599;BMP280;62026;39.230;9.122;2022-11-15T09:14:14;101254.44;;;21.55
67599;BMP280;62026;39.230;9.122;2022-11-15T09:16:59;101260.22;;;22.03
67599;BMP280;62026;39.230;9.122;2022-11-15T09:19:44;101244.78;;;21.65
67599;BMP280;62026;39.230;9.122;2022-11-15T09:22:29;101257.72;;;21.37
67599;BMP280;62026;39.230;9.122;2022-11-15T09:25:13;101258.69;;;21.72
67599;BMP280;62026;39.230;9.122;2022-11-15T09:27:58;101272.06;;;21.97
67599;BMP280;62026;39.230;9.122;2022-11-15T09:30:43;101269.59;;;22.06
67599;BMP280;62026;39.230;9.122;2022-11-15T09:33:28;101257.81;;;22.46
67599;BMP280;62026;39.230;9.122;2022-11-15T09:36:13;101257.81;;;22.46
67599;BMP280;62026;39.230;9.122;2022-11-15T09:39:00;101254.91;;;22.37
67599;BMP280;62026;39.230;9.122;2022-11-15T09:51:34;101241.03;;;22.15
67599;BMP280;62026;39.230;9.122;2022-11-15T09:54:25;101253.91;;;22.28
67599;BMP280;62026;39.230;9.122;2022-11-15T09:56:53;101238.47;;;22.38
67599;BMP280;62026;39.230;9.122;2022-11-15T10:02:33;101230.56;;;22.52
67599;BMP280;62026;39.230;9.122;2022-11-15T10:05:09;101209.66;;;22.78
67599;BMP280;62026;39.230;9.122;2022-11-15T10:11:21;101210.72;;;22.82
67599;BMP280;62026;39.230;9.122;2022-11-15T10:13:50;101201.03;;;22.81
67599;BMP280;62026;39.230;9.122;2022-11-15T10:22:51;101186.16;;;22.21
67599;BMP280;62026;39.230;9.122;2022-11-15T10:25:27;101185.56;;;21.80
67599;BMP280;62026;39.230;9.122;2022-11-15T10:30:38;101174.16;;;22.03
67599;BMP280;62026;39.230;9.122;2022-11-15T10:33:39;101174.91;;;22.09
67599;BMP280;62026;39.230;9.122;2022-11-15T10:43:45;101157.63;;;21.76
67599;BMP280;62026;39.230;9.122;2022-11-15T10:46:26;101159.06;;;21.53
67599;BMP280;62026;39.230;9.122;2022-11-15T10:48:52;101144.84;;;21.52
67599;BMP280;62026;39.230;9.122;2022-11-15T10:51:29;101152.81;;;21.73
67599;BMP280;62026;39.230;9.122;2022-11-15T10:54:00;101144.50;;;21.69
67599;BMP280;62026;39.230;9.122;2022-11-15T10:56:27;101133.44;;;21.81
67599;BMP280;62026;39.230;9.122;2022-11-15T10:58:57;101135.88;;;22.16
67599;BMP280;62026;39.230;9.122;2022-11-15T11:01:27;101123.06;;;21.98
67599;BMP280;62026;39.230;9.122;2022-11-15T11:04:07;101123.66;;;21.90
67599;BMP280;62026;39.230;9.122;2022-11-15T11:06:57;101120.56;;;21.68
67599;BMP280;62026;39.230;9.122;2022-11-15T11:11:55;101110.72;;;21.53
67599;BMP280;62026;39.230;9.122;2022-11-15T11:14:33;101103.72;;;21.52
67599;BMP280;62026;39.230;9.122;2022-11-15T11:22:42;101093.78;;;21.52
67599;BMP280;62026;39.230;9.122;2022-11-15T11:37:03;101070.69;;;21.46
67599;BMP280;62026;39.230;9.122;2022-11-15T11:48:47;101073.53;;;21.16
67599;BMP280;62026;39.230;9.122;2022-11-15T11:51:28;101061.16;;;21.15
67599;BMP280;62026;39.230;9.122;2022-11-15T11:54:12;101054.16;;;21.29
67599;BMP280;62026;39.230;9.122;2022-11-15T11:56:42;101034.88;;;21.12
67599;BMP280;62026;39.230;9.122;2022-11-15T11:59:41;101034.81;;;21.27
67599;BMP280;62026;39.230;9.122;2022-11-15T12:02:18;101047.16;;;21.28
67599;BMP280;62026;39.230;9.122;2022-11-15T12:04:53;101035.94;;;21.16
67599;BMP280;62026;39.230;9.122;2022-11-15T12:07:34;101034.84;;;21.17
67599;BMP280;62026;39.230;9.122;2022-11-15T12:10:24;101036.75;;;21.11
67599;BMP280;62026;39.230;9.122;2022-11-15T12:13:31;101030.56;;;21.16
67599;BMP280;62026;39.230;9.122;2022-11-15T12:16:21;101042.38;;;21.10
67599;BMP280;62026;39.230;9.122;2022-11-15T12:18:53;101018.28;;;21.05
67599;BMP280;62026;39.230;9.122;2022-11-15T12:24:29;101030.56;;;21.16
67599;BMP280;62026;39.230;9.122;2022-11-15T12:29:40;101018.22;;;21.15
67599;BMP280;62026;39.230;9.122;2022-11-15T12:34:55;101015.53;;;21.10
67599;BMP280;62026;39.230;9.122;2022-11-15T12:46:04;101013.97;;;20.94
67599;BMP280;62026;39.230;9.122;2022-11-15T12:51:03;101000.56;;;20.94
67599;BMP280;62026;39.230;9.122;2022-11-15T12:53:34;100990.91;;;20.98
67599;BMP280;62026;39.230;9.122;2022-11-15T13:04:29;100974.63;;;20.74
67599;BMP280;62026;39.230;9.122;2022-11-15T13:07:01;100971.66;;;20.75
67599;BMP280;62026;39.230;9.122;2022-11-15T13:12:09;100958.19;;;20.91
67599;BMP280;62026;39.230;9.122;2022-11-15T13:14:58;100963.78;;;20.94
67599;BMP280;62026;39.230;9.122;2022-11-15T13:17:29;100969.97;;;20.95
67599;BMP280;62026;39.230;9.122;2022-11-15T13:22:52;100954.13;;;20.98
67599;BMP280;62026;39.230;9.122;2022-11-15T13:25:47;100940.47;;;20.90
67599;BMP280;62026;39.230;9.122;2022-11-15T13:30:53;100950.38;;;20.99
67599;BMP280;62026;39.230;9.122;2022-11-15T13:33:34;100953.34;;;20.88
67599;BMP280;62026;39.230;9.122;2022-11-15T13:36:09;100950.19;;;20.80
67599;BMP280;62026;39.230;9.122;2022-11-15T13:38:41;100940.22;;;20.86
67599;BMP280;62026;39.230;9.122;2022-11-15T13:41:26;100948.00;;;20.88
67599;BMP280;62026;39.230;9.122;2022-11-15T13:43:55;100948.25;;;20.91
67599;BMP280;62026;39.230;9.122;2022-11-15T13:46:31;100942.34;;;20.89
67599;BMP280;62026;39.230;9.122;2022-11-15T13:49:02;100935.63;;;20.97
67599;BMP280;62026;39.230;9.122;2022-11-15T13:51:50;100939.94;;;20.93
67599;BMP280;62026;39.230;9.122;2022-11-15T13:54:30;100933.22;;;20.90
67599;BMP280;62026;39.230;9.122;2022-11-15T13:59:48;100925.47;;;20.89
67599;BMP280;62026;39.230;9.122;2022-11-15T14:02:29;100922.22;;;20.86
67599;BMP280;62026;39.230;9.122;2022-11-15T14:05:23;100919.53;;;20.86
67599;BMP280;62026;39.230;9.122;2022-11-15T14:08:37;100917.94;;;20.91
67599;BMP280;62026;39.230;9.122;2022-11-15T14:10:45;100912.88;;;20.84
67599;BMP280;62026;39.230;9.122;2022-11-15T14:13:29;100921.66;;;20.95
67599;BMP280;62026;39.230;9.122;2022-11-15T14:16:18;100920.34;;;20.87
67599;BMP280;62026;39.230;9.122;2022-11-15T14:18:50;100910.41;;;20.88
67599;BMP280;62026;39.230;9.122;2022-11-15T14:21:19;100906.41;;;20.85
67599;BMP280;62026;39.230;9.122;2022-11-15T14:23:46;100904.59;;;20.80
67599;BMP280;62026;39.230;9.122;2022-11-15T14:26:34;100904.53;;;20.85
67599;BMP280;62026;39.230;9.122;2022-11-15T14:29:29;100900.25;;;20.79
67599;BMP280;62026;39.230;9.122;2022-11-15T14:32:16;100903.75;;;20.80
67599;BMP280;62026;39.230;9.122;2022-11-15T14:34:43;100908.81;;;20.86
67599;BMP280;62026;39.230;9.122;2022-11-15T14:37:23;100902.63;;;20.86
67599;BMP280;62026;39.230;9.122;2022-11-15T14:39:49;100898.13;;;20.76
67599;BMP280;62026;39.230;9.122;2022-11-15T14:42:17;100900.81;;;20.76
67599;BMP280;62026;39.230;9.122;2022-11-15T14:44:43;100901.91;;;20.80
67599;BMP280;62026;39.230;9.122;2022-11-15T14:47:09;100896.53;;;20.80
67599;BMP280;62026;39.230;9.122;2022-11-15T14:49:35;100895.44;;;20.81
67599;BMP280;62026;39.230;9.122;2022-11-15T14:52:01;100883.63;;;20.77
67599;BMP280;62026;39.230;9.122;2022-11-15T14:54:27;100894.38;;;20.77
67599;BMP280;62026;39.230;9.122;2022-11-15T14:56:53;100898.13;;;20.81
67599;BMP280;62026;39.230;9.122;2022-11-15T14:59:19;100892.22;;;20.84
67599;BMP280;62026;39.230;9.122;2022-11-15T15:01:46;100894.63;;;20.81
67599;BMP280;62026;39.230;9.122;2022-11-15T15:04:12;100884.69;;;20.81
67599;BMP280;62026;39.230;9.122;2022-11-15T15:06:38;100890.06;;;20.81
67599;BMP280;62026;39.230;9.122;2022-11-15T15:09:04;100879.59;;;20.80
67599;BMP280;62026;39.230;9.122;2022-11-15T15:11:31;100878.25;;;20.77
67599;BMP280;62026;39.230;9.122;2022-11-15T15:13:58;100879.34;;;20.81
67599;BMP280;62026;39.230;9.122;2022-11-15T15:16:27;100880.13;;;20.82
67599;BMP280;62026;39.230;9.122;2022-11-15T15:18:54;100878.00;;;20.79
67599;BMP280;62026;39.230;9.122;2022-11-15T15:21:24;100878.25;;;20.77
67599;BMP280;62026;39.230;9.122;2022-11-15T15:23:52;100867.53;;;20.77
67599;BMP280;62026;39.230;9.122;2022-11-15T15:26:20;100853.88;;;20.69
67599;BMP280;62026;39.230;9.122;2022-11-15T15:28:47;100878.56;;;20.76
67599;BMP280;62026;39.230;9.122;2022-11-15T15:31:14;100872.91;;;20.77
67599;BMP280;62026;39.230;9.122;2022-11-15T15:33:40;100862.72;;;20.74
67599;BMP280;62026;39.230;9.122;2022-11-15T15:36:17;100868.91;;;20.75
67599;BMP280;62026;39.230;9.122;2022-11-15T15:38:43;100856.56;;;20.74
67599;BMP280;62026;39.230;9.122;2022-11-15T15:41:15;100862.72;;;20.74
67599;BMP280;62026;39.230;9.122;2022-11-15T15:43:41;100869.13;;;20.78
67599;BMP280;62026;39.230;9.122;2022-11-15T15:46:25;100867.53;;;20.77
67599;BMP280;62026;39.230;9.122;2022-11-15T15:48:51;100865.66;;;20.78
67599;BMP280;62026;39.230;9.122;2022-11-15T15:51:17;100867.53;;;20.77
67599;BMP280;62026;39.230;9.122;2022-11-15T15:53:43;100856.28;;;20.75
67599;BMP280;62026;39.230;9.122;2022-11-15T15:56:09;100862.72;;;20.74
67599;BMP280;62026;39.230;9.122;2022-11-15T15:58:35;100858.19;;;20.75
67599;BMP280;62026;39.230;9.122;2022-11-15T16:01:01;100852.81;;;20.75
67599;BMP280;62026;39.230;9.122;2022-11-15T16:03:27;100850.94;;;20.70
67599;BMP280;62026;39.230;9.122;2022-11-15T16:05:53;100856.03;;;20.72
67599;BMP280;62026;39.230;9.122;2022-11-15T16:08:23;100863.28;;;20.71
67599;BMP280;62026;39.230;9.122;2022-11-15T16:10:49;100857.09;;;20.71
67599;BMP280;62026;39.230;9.122;2022-11-15T16:13:16;100843.47;;;20.62
67599;BMP280;62026;39.230;9.122;2022-11-15T16:15:43;100852.59;;;20.66
67599;BMP280;62026;39.230;9.122;2022-11-15T16:18:16;100851.78;;;20.66
67599;BMP280;62026;39.230;9.122;2022-11-15T16:20:46;100859.03;;;20.65
67599;BMP280;62026;39.230;9.122;2022-11-15T16:23:17;100855.28;;;20.66
67599;BMP280;62026;39.230;9.122;2022-11-15T16:25:52;100848.84;;;20.62
67599;BMP280;62026;39.230;9.122;2022-11-15T16:28:29;100853.94;;;20.64
67599;BMP280;62026;39.230;9.122;2022-11-15T16:31:05;100855.28;;;20.61
67599;BMP280;62026;39.230;9.122;2022-11-15T16:33:33;100849.91;;;20.61
67599;BMP280;62026;39.230;9.122;2022-11-15T16:36:00;100833.59;;;20.53
67599;BMP280;62026;39.230;9.122;2022-11-15T16:38:27;100838.38;;;20.56
67599;BMP280;62026;39.230;9.122;2022-11-15T16:40:53;100845.63;;;20.60
67599;BMP280;62026;39.230;9.122;2022-11-15T16:43:19;100845.63;;;20.60
67599;BMP280;62026;39.230;9.122;2022-11-15T16:45:45;100842.44;;;20.58
67599;BMP280;62026;39.230;9.122;2022-11-15T16:48:27;100844.31;;;20.58
67599;BMP280;62026;39.230;9.122;2022-11-15T16:50:58;100837.59;;;20.55
67599;BMP280;62026;39.230;9.122;2022-11-15T16:53:26;100839.75;;;20.53
67599;BMP280;62026;39.230;9.122;2022-11-15T16:55:54;100848.34;;;20.55
67599;BMP280;62026;39.230;9.122;2022-11-15T16:58:20;100845.13;;;20.53
67599;BMP280;62026;39.230;9.122;2022-11-15T17:00:51;100838.16;;;20.52
67599;BMP280;62026;39.230;9.122;2022-11-15T17:03:19;100836.56;;;20.51
67599;BMP280;62026;39.230;9.122;2022-11-15T17:05:45;100837.06;;;20.48
67599;BMP280;62026;39.230;9.122;2022-11-15T17:08:11;100830.69;;;20.44
67599;BMP280;62026;39.230;9.122;2022-11-15T17:10:39;100836.28;;;20.47
67599;BMP280;62026;39.230;9.122;2022-11-15T17:13:12;100838.69;;;20.49
67599;BMP280;62026;39.230;9.122;2022-11-15T17:15:39;100837.06;;;20.48
67599;BMP280;62026;39.230;9.122;2022-11-15T17:18:05;100837.06;;;20.48
67599;BMP280;62026;39.230;9.122;2022-11-15T17:20:31;100833.91;;;20.46
67599;BMP280;62026;39.230;9.122;2022-11-15T17:22:57;100838.19;;;20.42
67599;BMP280;62026;39.230;9.122;2022-11-15T17:25:23;100835.25;;;20.43
67599;BMP280;62026;39.230;9.122;2022-11-15T17:27:49;100831.72;;;20.48
67599;BMP280;62026;39.230;9.122;2022-11-15T17:30:16;100830.09;;;20.47
67599;BMP280;62026;39.230;9.122;2022-11-15T17:32:43;100818.59;;;20.46
67599;BMP280;62026;39.230;9.122;2022-11-15T17:35:11;100826.66;;;20.46